Time;durP1;ratioP1;P1;durP2;ratioP2;P2;SDS_P1;SDS_P2;PMS_P1;PMS_P2;Temp;Humidity;BMP_temperature;BMP_pressure;BME280_temperature;BME280_humidity;BME280_pressure;Samples;Min_cycle;Max_cycle;Signal;HPM_P1;HPM_P2
2021/06/07 00:00:36;;;;;;;20.27;10.77;;;12.50;99.90;;;;;;5049774;29;20233;-68
2021/06/07 00:03:08;;;;;;;17.63;10.27;;;12.50;99.90;;;;;;5033170;29;20235;-67
2021/06/07 00:05:40;;;;;;;16.87;10.43;;;12.40;99.90;;;;;;5049308;29;20207;-67
2021/06/07 00:08:12;;;;;;;21.27;11.53;;;12.40;99.90;;;;;;5049965;29;20216;-67
2021/06/07 00:10:44;;;;;;;17.17;9.97;;;12.40;99.90;;;;;;5049627;29;20877;-67
2021/06/07 00:13:18;;;;;;;18.73;10.17;;;12.40;99.90;;;;;;5049348;29;20236;-69
2021/06/07 00:15:51;;;;;;;16.37;10.50;;;12.30;99.90;;;;;;5049362;29;20279;-66
2021/06/07 00:18:24;;;;;;;18.03;11.50;;;12.30;99.90;;;;;;5049354;29;20235;-67
2021/06/07 00:21:18;;;;;;;21.47;11.50;;;12.30;99.90;;;;;;5049209;29;20579;-67
2021/06/07 00:23:51;;;;;;;22.77;11.30;;;12.30;99.90;;;;;;5049407;29;20698;-69
2021/06/07 00:26:24;;;;;;;21.37;10.83;;;12.20;99.90;;;;;;5048995;29;20228;-67
2021/06/07 00:28:56;;;;;;;18.47;11.03;;;12.20;99.90;;;;;;5049140;29;20705;-67
2021/06/07 00:31:28;;;;;;;19.03;10.97;;;12.20;99.90;;;;;;5049326;29;20214;-67
2021/06/07 00:34:03;;;;;;;20.67;11.10;;;12.20;99.90;;;;;;5049340;29;20222;-66
2021/06/07 00:36:36;;;;;;;18.30;10.83;;;12.10;99.90;;;;;;5049484;29;20235;-69
2021/06/07 00:39:11;;;;;;;23.10;11.07;;;12.10;99.90;;;;;;5049015;29;20215;-66
2021/06/07 00:41:48;;;;;;;21.17;11.37;;;12.10;99.90;;;;;;5049093;29;20218;-67
2021/06/07 00:44:22;;;;;;;20.50;10.87;;;12.10;99.90;;;;;;5049074;29;20211;-67
2021/06/07 00:46:54;;;;;;;21.37;11.17;;;12.10;99.90;;;;;;5048928;29;20676;-68
2021/06/07 00:49:26;;;;;;;19.77;10.97;;;12.10;99.90;;;;;;5049004;29;20247;-68
2021/06/07 00:51:58;;;;;;;20.30;11.63;;;12.10;99.90;;;;;;5048996;29;20238;-66
2021/06/07 00:54:30;;;;;;;17.70;11.03;;;12.00;99.90;;;;;;5048776;29;20667;-66
2021/06/07 00:57:02;;;;;;;21.53;11.50;;;12.00;99.90;;;;;;5048603;29;20215;-68
2021/06/07 00:59:34;;;;;;;19.80;10.83;;;12.00;99.90;;;;;;5048558;29;20215;-67
2021/06/07 01:02:06;;;;;;;19.10;10.13;;;12.00;99.90;;;;;;5048612;29;20235;-69
2021/06/07 01:04:38;;;;;;;19.80;10.97;;;11.90;99.90;;;;;;5048870;29;20211;-67
2021/06/07 01:07:10;;;;;;;17.30;10.83;;;11.90;99.90;;;;;;5048369;29;20211;-67
2021/06/07 01:09:41;;;;;;;17.60;9.90;;;11.90;99.90;;;;;;5048370;29;20275;-67
2021/06/07 01:12:13;;;;;;;19.73;10.47;;;11.80;99.90;;;;;;5048446;29;20215;-67
2021/06/07 01:14:47;;;;;;;17.40;10.47;;;11.80;99.90;;;;;;5048223;29;20300;-69
2021/06/07 01:17:19;;;;;;;18.30;9.77;;;11.80;99.90;;;;;;5048300;29;20243;-68
2021/06/07 01:19:52;;;;;;;19.67;10.80;;;11.80;99.90;;;;;;5048245;29;20244;-67
2021/06/07 01:22:24;;;;;;;18.30;9.87;;;11.80;99.90;;;;;;5048196;29;20235;-68
2021/06/07 01:24:56;;;;;;;17.03;10.00;;;11.70;99.90;;;;;;5047121;29;20212;-67
2021/06/07 01:27:28;;;;;;;22.73;10.10;;;11.70;99.90;;;;;;5048110;29;20219;-68
2021/06/07 01:30:01;;;;;;;16.53;10.53;;;11.70;99.90;;;;;;5048050;29;20224;-67
2021/06/07 01:32:33;;;;;;;18.47;10.40;;;11.70;99.90;;;;;;5048345;29;20215;-68
2021/06/07 01:35:08;;;;;;;15.67;9.80;;;11.70;99.90;;;;;;5048021;29;20203;-68
2021/06/07 01:37:41;;;;;;;16.17;10.10;;;11.70;99.90;;;;;;5048033;29;20211;-68
2021/06/07 01:40:23;;;;;;;15.60;9.83;;;11.70;99.90;;;;;;5048133;29;20207;-68
2021/06/07 01:42:57;;;;;;;18.20;10.33;;;11.70;99.90;;;;;;5048033;29;20231;-68
2021/06/07 01:45:32;;;;;;;17.27;10.07;;;11.70;99.90;;;;;;5048001;29;20334;-68
2021/06/07 01:48:06;;;;;;;17.80;10.30;;;11.60;99.90;;;;;;5048107;29;20214;-68
2021/06/07 01:50:38;;;;;;;15.23;9.07;;;11.60;99.90;;;;;;5047813;29;20212;-67
2021/06/07 01:53:12;;;;;;;13.23;9.07;;;11.60;99.90;;;;;;5047988;29;20216;-68
2021/06/07 01:55:50;;;;;;;15.00;9.07;;;11.60;99.90;;;;;;5048090;29;20215;-66
2021/06/07 01:58:23;;;;;;;15.87;9.10;;;11.60;99.90;;;;;;5050763;29;20215;-68
2021/06/07 02:00:57;;;;;;;13.57;8.67;;;11.60;99.90;;;;;;5051866;29;20611;-66
2021/06/07 02:03:29;;;;;;;15.47;8.77;;;11.60;99.90;;;;;;5057732;29;20221;-68
2021/06/07 02:06:04;;;;;;;14.87;8.63;;;11.60;99.90;;;;;;5071195;29;20218;-66
2021/06/07 02:08:37;;;;;;;15.47;9.33;;;11.60;99.90;;;;;;5071163;29;20221;-67
2021/06/07 02:11:20;;;;;;;13.30;8.67;;;11.60;99.90;;;;;;5070031;29;20214;-67
2021/06/07 02:13:57;;;;;;;14.93;8.37;;;11.60;99.90;;;;;;5070832;29;20582;-68
2021/06/07 02:16:33;;;;;;;12.63;8.70;;;11.60;99.90;;;;;;5071286;29;20246;-68
2021/06/07 02:19:08;;;;;;;19.60;8.90;;;11.60;99.90;;;;;;5070815;29;20210;-68
2021/06/07 02:21:40;;;;;;;17.33;9.23;;;11.60;99.90;;;;;;5070723;29;20222;-68
2021/06/07 02:24:12;;;;;;;15.70;8.70;;;11.60;99.90;;;;;;5070712;29;20238;-67
2021/06/07 02:26:44;;;;;;;13.37;8.93;;;11.60;99.90;;;;;;5070795;29;20214;-66
2021/06/07 02:29:16;;;;;;;14.73;8.83;;;11.60;99.90;;;;;;5069795;29;20567;-67
2021/06/07 02:31:48;;;;;;;15.37;9.10;;;11.60;99.90;;;;;;5072125;29;20213;-67
2021/06/07 02:34:19;;;;;;;14.13;8.50;;;11.60;99.90;;;;;;5073147;29;20685;-68
2021/06/07 02:36:51;;;;;;;16.13;9.63;;;11.60;99.90;;;;;;5071707;29;20218;-69
2021/06/07 02:39:26;;;;;;;16.77;9.77;;;11.60;99.90;;;;;;5071372;29;20666;-70
2021/06/07 02:41:58;;;;;;;17.33;9.13;;;11.60;99.90;;;;;;5070656;29;20210;-68
2021/06/07 02:44:29;;;;;;;18.17;10.33;;;11.60;99.90;;;;;;5070863;29;20292;-68
2021/06/07 02:47:02;;;;;;;14.97;9.30;;;11.70;99.90;;;;;;5070493;29;20570;-68
2021/06/07 02:49:34;;;;;;;13.87;7.83;;;11.70;99.90;;;;;;5070524;29;20237;-69
2021/06/07 02:52:06;;;;;;;16.97;9.10;;;11.70;99.90;;;;;;5070218;29;20211;-67
2021/06/07 02:54:38;;;;;;;14.27;8.07;;;11.70;99.90;;;;;;5070182;29;20218;-67
2021/06/07 02:57:10;;;;;;;11.20;7.83;;;11.70;99.90;;;;;;5070317;29;20211;-68
2021/06/07 02:59:42;;;;;;;13.80;7.90;;;11.80;99.90;;;;;;5070340;29;20223;-66
2021/06/07 03:02:14;;;;;;;13.13;8.00;;;11.80;99.90;;;;;;5070339;29;20210;-67
2021/06/07 03:04:46;;;;;;;11.70;7.60;;;11.80;99.90;;;;;;5069948;29;20219;-68
2021/06/07 03:07:18;;;;;;;12.33;8.07;;;11.80;99.90;;;;;;5029116;29;20664;-68
2021/06/07 03:09:50;;;;;;;12.27;7.40;;;11.90;99.90;;;;;;5029153;29;20602;-66
2021/06/07 03:12:21;;;;;;;8.80;6.63;;;12.00;99.90;;;;;;5029463;29;20604;-68
2021/06/07 03:14:53;;;;;;;11.63;7.03;;;12.00;99.90;;;;;;5029212;29;20224;-67
2021/06/07 03:17:25;;;;;;;11.23;6.63;;;12.00;99.90;;;;;;5029298;29;20711;-68
2021/06/07 03:19:57;;;;;;;12.00;7.17;;;12.10;99.90;;;;;;5029152;29;20208;-69
2021/06/07 03:22:29;;;;;;;10.80;6.40;;;12.20;99.90;;;;;;5029209;29;20285;-67
2021/06/07 03:25:02;;;;;;;13.83;6.57;;;12.20;99.90;;;;;;5043240;29;20266;-69
2021/06/07 03:27:34;;;;;;;9.13;6.27;;;12.30;99.90;;;;;;5068509;29;20207;-66
2021/06/07 03:30:08;;;;;;;11.30;6.27;;;12.40;99.90;;;;;;5069599;29;20211;-66
2021/06/07 03:32:40;;;;;;;9.30;5.80;;;12.50;99.90;;;;;;5068439;29;20207;-68
2021/06/07 03:35:15;;;;;;;8.77;5.63;;;12.60;99.90;;;;;;5069357;29;20322;-68
2021/06/07 03:37:47;;;;;;;8.67;5.50;;;12.70;99.90;;;;;;5069359;29;20266;-68
2021/06/07 03:40:26;;;;;;;9.57;6.00;;;12.70;99.90;;;;;;5069318;29;20210;-67
2021/06/07 03:42:59;;;;;;;8.23;5.70;;;12.80;99.90;;;;;;5069403;29;20286;-68
2021/06/07 03:45:32;;;;;;;8.40;5.87;;;12.90;99.90;;;;;;5069321;29;20222;-67
2021/06/07 03:48:05;;;;;;;7.00;5.33;;;13.00;99.90;;;;;;5069318;29;20214;-68
2021/06/07 03:50:38;;;;;;;6.53;5.20;;;13.10;99.90;;;;;;5069302;29;20279;-69
2021/06/07 03:53:11;;;;;;;7.83;5.43;;;13.20;99.90;;;;;;5069429;29;20214;-67
2021/06/07 03:55:44;;;;;;;8.73;5.30;;;13.20;99.90;;;;;;5069603;29;20604;-66
2021/06/07 03:58:16;;;;;;;8.20;4.90;;;13.40;99.90;;;;;;5069233;29;20210;-68
2021/06/07 04:00:48;;;;;;;8.03;5.10;;;13.50;99.90;;;;;;5068949;29;20248;-67
2021/06/07 04:03:21;;;;;;;6.73;5.00;;;13.60;99.90;;;;;;5069033;29;20239;-67
2021/06/07 04:05:52;;;;;;;8.80;5.03;;;13.70;99.90;;;;;;5069193;29;20214;-68
2021/06/07 04:08:24;;;;;;;10.07;5.17;;;13.80;99.90;;;;;;5069058;29;20271;-68
2021/06/07 04:10:56;;;;;;;11.87;5.60;;;13.90;99.90;;;;;;5068758;29;20307;-68
2021/06/07 04:13:29;;;;;;;6.47;5.10;;;13.90;99.90;;;;;;5067856;29;20218;-67
2021/06/07 04:16:00;;;;;;;8.10;5.40;;;14.00;99.90;;;;;;5068932;29;20214;-67
2021/06/07 04:18:32;;;;;;;8.63;5.23;;;14.10;99.90;;;;;;5069044;29;20215;-68
2021/06/07 04:21:04;;;;;;;11.83;5.40;;;14.20;99.90;;;;;;5067945;29;20685;-68
2021/06/07 04:23:36;;;;;;;9.87;5.43;;;14.30;99.90;;;;;;5068440;29;20238;-68
2021/06/07 04:26:08;;;;;;;8.57;4.67;;;14.40;99.90;;;;;;5068546;29;20576;-68
2021/06/07 04:28:40;;;;;;;7.53;4.53;;;14.50;99.90;;;;;;5068932;29;20207;-67
2021/06/07 04:31:12;;;;;;;8.97;4.47;;;14.60;99.90;;;;;;5068147;29;20207;-67
2021/06/07 04:33:44;;;;;;;13.77;5.33;;;14.70;99.90;;;;;;5068114;29;20211;-68
2021/06/07 04:36:16;;;;;;;9.60;5.33;;;14.80;99.90;;;;;;5068098;29;20215;-67
2021/06/07 04:38:48;;;;;;;10.20;5.50;;;14.80;99.90;;;;;;5068610;29;20581;-67
2021/06/07 04:41:20;;;;;;;7.80;4.37;;;14.90;99.90;;;;;;5068558;29;20282;-67
2021/06/07 04:43:52;;;;;;;8.73;4.87;;;15.00;99.90;;;;;;5068517;29;20242;-65
2021/06/07 04:46:23;;;;;;;10.47;4.53;;;15.10;99.90;;;;;;5068280;29;20696;-66
2021/06/07 04:48:55;;;;;;;9.50;5.17;;;15.20;99.90;;;;;;5068377;29;20246;-67
2021/06/07 04:51:27;;;;;;;14.10;5.23;;;15.30;99.90;;;;;;5068092;29;20227;-67
2021/06/07 04:53:59;;;;;;;11.73;5.27;;;15.40;99.90;;;;;;5068217;29;20267;-67
2021/06/07 04:56:32;;;;;;;9.83;4.77;;;15.50;99.90;;;;;;5068224;29;20214;-65
2021/06/07 04:59:04;;;;;;;13.60;4.97;;;15.60;99.90;;;;;;5068082;29;20670;-66
2021/06/07 05:01:37;;;;;;;8.10;4.87;;;15.70;99.90;;;;;;5067921;29;20210;-66
2021/06/07 05:04:09;;;;;;;11.83;4.93;;;15.80;99.90;;;;;;5061177;29;20227;-65
2021/06/07 05:06:41;;;;;;;8.30;4.70;;;16.00;99.90;;;;;;5048636;29;20569;-66
2021/06/07 05:09:13;;;;;;;11.03;5.37;;;16.10;99.90;;;;;;5048600;29;20589;-68
2021/06/07 05:11:45;;;;;;;6.73;4.50;;;16.30;99.90;;;;;;5048657;29;20214;-68
2021/06/07 05:14:17;;;;;;;12.63;4.73;;;16.50;99.90;;;;;;5048447;29;20604;-66
2021/06/07 05:16:49;;;;;;;13.55;4.82;;;16.60;99.90;;;;;;5048783;29;20239;-73
2021/06/07 05:19:23;;;;;;;11.23;5.17;;;16.70;99.90;;;;;;5061130;29;20218;-79
2021/06/07 05:21:55;;;;;;;10.63;4.57;;;16.80;99.90;;;;;;5058431;29;20215;-80
2021/06/07 05:24:27;;;;;;;9.87;4.70;;;16.90;99.90;;;;;;5081744;29;20683;-68
2021/06/07 05:26:58;;;;;;;7.67;4.33;;;17.00;99.90;;;;;;5055789;29;20219;-70
2021/06/07 05:29:32;;;;;;;8.35;4.53;;;17.10;99.90;;;;;;5044093;29;20210;-68
2021/06/07 05:32:05;;;;;;;8.32;4.50;;;17.30;99.90;;;;;;5056560;29;20233;-69
2021/06/07 05:34:38;;;;;;;9.48;4.40;;;17.40;99.90;;;;;;5060568;29;20577;-69
2021/06/07 05:37:09;;;;;;;9.70;4.78;;;17.50;99.90;;;;;;5045455;29;20297;-71
2021/06/07 05:39:41;;;;;;;10.75;4.40;;;17.80;99.90;;;;;;5066704;29;20191;-72
2021/06/07 05:42:13;;;;;;;6.57;3.90;;;19.10;99.90;;;;;;5067134;29;20676;-70
2021/06/07 05:44:45;;;;;;;10.93;3.92;;;21.20;99.90;;;;;;5067602;29;20230;-71
2021/06/07 05:47:19;;;;;;;8.73;3.30;;;23.50;99.90;;;;;;5067430;29;20205;-70
2021/06/07 05:49:51;;;;;;;12.43;3.42;;;25.50;99.90;;;;;;5066994;29;20203;-69
2021/06/07 05:52:23;;;;;;;9.35;3.22;;;27.00;97.40;;;;;;5067276;29;20468;-70
2021/06/07 05:54:55;;;;;;;14.93;4.32;;;28.30;93.70;;;;;;5066987;29;20666;-70
2021/06/07 05:57:27;;;;;;;12.32;3.45;;;29.40;89.00;;;;;;5067484;29;20278;-67
2021/06/07 05:59:58;;;;;;;11.25;3.00;;;30.20;83.40;;;;;;5066778;29;20211;-64
2021/06/07 06:02:30;;;;;;;10.43;3.20;;;31.30;79.10;;;;;;5066659;29;20202;-65
2021/06/07 06:05:03;;;;;;;7.20;3.08;;;31.20;73.50;;;;;;5066774;29;20250;-65
2021/06/07 06:07:35;;;;;;;16.40;3.50;;;31.20;73.10;;;;;;5066632;29;20203;-71
2021/06/07 06:10:08;;;;;;;13.88;3.58;;;31.80;71.00;;;;;;5066639;29;20207;-72
2021/06/07 06:12:41;;;;;;;11.00;2.83;;;32.00;68.40;;;;;;5066551;29;20269;-68
2021/06/07 06:15:15;;;;;;;11.10;3.00;;;31.50;67.90;;;;;;5066989;29;20210;-68
2021/06/07 06:17:47;;;;;;;10.07;3.13;;;31.70;67.40;;;;;;5066834;29;20606;-67
2021/06/07 06:20:20;;;;;;;7.30;2.45;;;32.20;67.00;;;;;;5066754;29;20272;-64
2021/06/07 06:22:52;;;;;;;4.88;2.60;;;32.40;64.50;;;;;;5066627;29;20219;-66
2021/06/07 06:25:25;;;;;;;8.55;2.28;;;32.60;63.20;;;;;;5066689;29;20202;-63
2021/06/07 06:27:58;;;;;;;9.50;2.55;;;33.10;62.10;;;;;;5066439;29;20234;-65
2021/06/07 06:30:30;;;;;;;4.72;2.50;;;33.40;59.70;;;;;;5066690;29;20569;-66
2021/06/07 06:33:02;;;;;;;6.40;2.30;;;33.40;59.50;;;;;;5066467;29;20267;-67
2021/06/07 06:35:35;;;;;;;5.60;2.28;;;33.70;58.00;;;;;;5068089;29;20221;-68
2021/06/07 06:38:07;;;;;;;4.32;2.25;;;33.30;57.20;;;;;;5067865;29;20296;-69
2021/06/07 06:40:40;;;;;;;6.45;2.65;;;32.80;57.80;;;;;;5068515;29;20662;-64
2021/06/07 06:43:11;;;;;;;5.72;2.35;;;32.90;58.40;;;;;;5067941;29;20206;-65
2021/06/07 06:45:44;;;;;;;4.07;2.33;;;33.00;58.00;;;;;;5071066;29;20225;-69
2021/06/07 06:48:16;;;;;;;6.10;2.60;;;33.00;57.80;;;;;;5070611;29;20214;-70
2021/06/07 06:50:48;;;;;;;6.60;2.70;;;32.70;57.70;;;;;;5070022;29;20605;-66
2021/06/07 06:53:21;;;;;;;5.53;2.72;;;32.10;58.00;;;;;;5070260;29;20207;-67
2021/06/07 06:55:54;;;;;;;8.02;2.92;;;31.30;58.70;;;;;;5063835;29;20618;-63
2021/06/07 06:58:26;;;;;;;7.53;3.20;;;30.90;59.60;;;;;;5068384;29;20222;-65
2021/06/07 07:00:58;;;;;;;6.35;2.67;;;30.80;59.90;;;;;;5069892;29;20274;-65
2021/06/07 07:03:30;;;;;;;5.57;2.58;;;31.40;59.70;;;;;;5069346;29;20227;-67
2021/06/07 07:06:02;;;;;;;5.18;2.55;;;32.00;59.50;;;;;;5069669;29;20575;-68
2021/06/07 07:08:34;;;;;;;9.77;3.42;;;32.10;58.10;;;;;;5036578;29;20203;-70
2021/06/07 07:11:06;;;;;;;7.65;2.65;;;31.70;59.00;;;;;;5050224;29;20307;-69
2021/06/07 07:13:38;;;;;;;7.65;3.20;;;31.70;58.50;;;;;;5050034;29;20215;-67
2021/06/07 07:16:11;;;;;;;12.15;3.58;;;31.10;59.10;;;;;;5063991;29;20211;-63
2021/06/07 07:18:43;;;;;;;11.07;3.75;;;30.40;59.40;;;;;;5071236;29;20221;-68
2021/06/07 07:21:16;;;;;;;7.97;3.33;;;29.90;60.20;;;;;;5062549;29;20249;-70
2021/06/07 07:23:48;;;;;;;10.05;3.70;;;28.50;62.10;;;;;;5078360;29;20210;-65
2021/06/07 07:26:20;;;;;;;6.85;3.10;;;28.00;64.40;;;;;;5087202;29;20210;-66
2021/06/07 07:28:52;;;;;;;7.40;3.10;;;27.80;65.30;;;;;;5086178;29;20206;-67
2021/06/07 07:31:24;;;;;;;9.77;3.25;;;27.40;66.40;;;;;;5039242;29;20215;-67
2021/06/07 07:33:56;;;;;;;7.18;3.28;;;27.30;65.70;;;;;;5077715;29;20212;-67
2021/06/07 07:36:28;;;;;;;4.97;2.60;;;27.00;66.80;;;;;;5068335;29;20225;-69
2021/06/07 07:39:00;;;;;;;6.32;2.83;;;27.00;66.60;;;;;;5068820;29;20195;-68
2021/06/07 07:41:32;;;;;;;8.88;3.25;;;26.60;66.70;;;;;;5067915;29;20203;-68
2021/06/07 07:44:04;;;;;;;6.53;2.92;;;26.20;66.70;;;;;;5068254;29;20226;-66
2021/06/07 07:46:45;;;;;;;5.72;2.92;;;26.40;67.20;;;;;;5066614;29;20203;-66
2021/06/07 07:49:17;;;;;;;5.45;2.72;;;26.20;67.90;;;;;;5068493;29;20255;-65
2021/06/07 07:51:51;;;;;;;5.53;3.08;;;26.10;69.00;;;;;;5068198;29;20214;-66
2021/06/07 07:54:23;;;;;;;7.10;3.30;;;26.00;68.70;;;;;;5066861;29;20215;-65
2021/06/07 07:56:55;;;;;;;7.35;2.95;;;25.80;69.30;;;;;;5068586;29;20678;-68
2021/06/07 07:59:27;;;;;;;8.05;3.58;;;25.50;69.90;;;;;;5068374;29;20203;-65
2021/06/07 08:02:00;;;;;;;9.82;3.85;;;25.60;70.10;;;;;;5067444;29;20195;-73
2021/06/07 08:04:32;;;;;;;6.72;3.30;;;25.70;70.70;;;;;;5068206;29;20298;-63
2021/06/07 08:07:05;;;;;;;6.88;3.47;;;25.90;70.80;;;;;;5068398;29;20218;-62
2021/06/07 08:09:41;;;;;;;5.38;3.22;;;25.80;69.00;;;;;;5068435;29;20590;-64
2021/06/07 08:12:13;;;;;;;7.10;3.47;;;25.80;70.00;;;;;;5067937;29;20622;-62
2021/06/07 08:14:45;;;;;;;9.82;3.08;;;25.70;70.10;;;;;;5067737;29;20210;-69
2021/06/07 08:17:17;;;;;;;5.30;3.20;;;25.50;71.80;;;;;;5067720;29;20250;-65
2021/06/07 08:19:49;;;;;;;10.43;3.78;;;25.60;71.90;;;;;;5068016;29;20206;-64
2021/06/07 08:22:21;;;;;;;9.40;3.33;;;25.70;71.50;;;;;;5067960;29;20690;-66
2021/06/07 08:24:53;;;;;;;9.88;3.63;;;25.70;72.70;;;;;;5068128;29;20676;-62
2021/06/07 08:27:25;;;;;;;7.00;3.30;;;25.40;72.30;;;;;;5067764;29;20658;-59
2021/06/07 08:29:57;;;;;;;7.10;4.10;;;25.30;73.10;;;;;;5068144;29;20558;-69
2021/06/07 08:32:29;;;;;;;4.43;2.95;;;25.10;74.70;;;;;;5067714;29;20195;-69
2021/06/07 08:35:02;;;;;;;4.32;3.83;;;25.10;74.30;;;;;;5051071;29;20227;-66
2021/06/07 08:37:35;;;;;;;6.25;3.65;;;25.20;74.80;;;;;;5051276;29;20234;-71
2021/06/07 08:40:10;;;;;;;4.63;3.45;;;25.10;78.80;;;;;;5067749;29;20580;-72
2021/06/07 08:42:43;;;;;;;5.78;3.33;;;24.90;86.80;;;;;;5076126;29;20642;-70
2021/06/07 08:45:21;;;;;;;6.68;3.15;;;24.70;89.60;;;;;;5070695;29;20581;-71
2021/06/07 08:47:54;;;;;;;4.13;3.22;;;24.60;90.40;;;;;;5087191;29;20198;-72
2021/06/07 08:50:28;;;;;;;6.90;3.35;;;24.70;90.90;;;;;;5082963;29;20209;-67
2021/06/07 08:53:00;;;;;;;6.65;3.17;;;24.80;91.00;;;;;;5060770;29;20262;-68
2021/06/07 08:55:34;;;;;;;5.25;3.20;;;24.50;91.10;;;;;;5067069;29;20211;-68
2021/06/07 08:58:07;;;;;;;7.43;2.92;;;24.20;92.00;;;;;;5067099;29;20639;-68
2021/06/07 09:00:41;;;;;;;7.75;3.17;;;23.80;92.40;;;;;;5067774;29;20210;-69
2021/06/07 09:03:20;;;;;;;6.43;3.30;;;23.80;92.60;;;;;;5067264;29;20655;-69
2021/06/07 09:05:55;;;;;;;4.30;3.22;;;24.00;92.20;;;;;;5066973;29;20246;-69
2021/06/07 09:08:36;;;;;;;2.95;2.65;;;23.80;92.00;;;;;;5067416;29;20548;-68
2021/06/07 09:11:11;;;;;;;5.38;3.50;;;23.90;92.20;;;;;;5050421;29;20215;-65
2021/06/07 09:13:44;;;;;;;5.93;3.33;;;23.80;91.60;;;;;;5066674;29;20565;-67
2021/06/07 09:16:16;;;;;;;7.28;2.97;;;23.70;91.40;;;;;;5067209;29;20238;-67
2021/06/07 09:18:49;;;;;;;5.80;2.60;;;23.60;91.00;;;;;;5067053;29;20191;-68
2021/06/07 09:21:24;;;;;;;2.75;2.50;;;23.80;90.80;;;;;;5066807;29;20221;-62
2021/06/07 09:24:04;;;;;;;4.72;2.70;;;23.60;90.60;;;;;;5066912;29;20503;-60
2021/06/07 09:26:39;;;;;;;4.80;2.70;;;23.40;90.30;;;;;;5067322;29;20568;-61
2021/06/07 09:29:23;;;;;;;3.55;2.75;;;23.40;90.40;;;;;;5067056;29;20201;-63
2021/06/07 09:31:56;;;;;;;3.33;2.80;;;23.40;90.60;;;;;;5066661;29;20714;-59
2021/06/07 09:34:30;;;;;;;3.63;2.78;;;23.00;90.40;;;;;;5066515;29;20195;-59
2021/06/07 09:37:11;;;;;;;3.05;2.33;;;22.60;90.80;;;;;;5066885;29;20218;-60
2021/06/07 09:39:44;;;;;;;8.05;3.10;;;22.40;91.00;;;;;;5066550;29;20206;-57
2021/06/07 09:42:22;;;;;;;4.05;2.90;;;22.20;91.50;;;;;;5066586;29;20199;-57
2021/06/07 09:44:55;;;;;;;7.28;3.33;;;22.10;91.90;;;;;;5066459;29;20368;-57
2021/06/07 09:47:31;;;;;;;5.05;3.00;;;22.10;92.10;;;;;;5066689;29;20207;-54
2021/06/07 09:50:08;;;;;;;6.57;3.05;;;21.80;92.70;;;;;;5066724;29;20212;-53
2021/06/07 09:52:44;;;;;;;5.20;3.00;;;21.70;92.70;;;;;;5066630;29;20213;-42
2021/06/07 09:55:19;;;;;;;5.25;2.90;;;21.40;93.00;;;;;;5066638;29;20211;-46
2021/06/07 09:58:01;;;;;;;3.50;3.08;;;21.20;93.20;;;;;;5060588;29;20225;-43
2021/06/07 10:00:36;;;;;;;7.38;3.20;;;21.10;93.60;;;;;;5066461;29;20202;-49
2021/06/07 10:03:22;;;;;;;8.73;4.68;;;21.10;93.60;;;;;;5065979;29;20206;-50
2021/06/07 10:06:19;;;;;;;7.57;5.10;;;21.20;93.20;;;;;;5075754;29;20328;-53
2021/06/07 10:08:59;;;;;;;6.35;3.28;;;21.10;93.20;;;;;;5061655;29;20206;-60
2021/06/07 10:11:42;;;;;;;5.40;2.83;;;20.90;93.30;;;;;;5065370;29;20203;-63
2021/06/07 10:14:20;;;;;;;5.38;2.95;;;20.90;93.30;;;;;;5050166;29;20199;-61
2021/06/07 10:17:02;;;;;;;6.70;3.10;;;21.10;93.30;;;;;;5066045;29;20251;-61
2021/06/07 10:19:49;;;;;;;5.57;3.00;;;21.10;93.00;;;;;;5053562;29;20218;-61
2021/06/07 10:22:20;;;;;;;4.30;2.67;;;21.10;93.00;;;;;;5070498;29;20680;-61
2021/06/07 10:24:52;;;;;;;6.45;2.72;;;21.20;93.00;;;;;;5053694;29;20223;-61
2021/06/07 10:27:24;;;;;;;4.60;2.90;;;21.30;93.10;;;;;;5070315;29;20203;-65
2021/06/07 10:29:56;;;;;;;6.05;2.95;;;21.40;92.50;;;;;;5070194;29;20195;-62
2021/06/07 10:32:29;;;;;;;5.57;2.60;;;21.50;92.60;;;;;;5070513;29;20195;-64
2021/06/07 10:35:05;;;;;;;5.40;2.80;;;21.50;92.50;;;;;;5053523;29;20207;-49
2021/06/07 10:37:58;;;;;;;5.47;2.95;;;21.60;91.70;;;;;;5070206;29;20569;-56
2021/06/07 10:40:30;;;;;;;7.65;2.88;;;21.40;91.70;;;;;;5070529;29;20548;-51
2021/06/07 10:43:04;;;;;;;3.40;2.22;;;21.40;91.80;;;;;;5069880;29;20291;-56
2021/06/07 10:45:39;;;;;;;5.22;2.80;;;21.10;91.70;;;;;;5069900;29;20573;-62
2021/06/07 10:48:12;;;;;;;4.10;2.30;;;20.70;92.30;;;;;;5053069;29;20206;-65
2021/06/07 10:50:45;;;;;;;3.92;3.28;;;20.60;92.30;;;;;;5069769;29;20218;-67
2021/06/07 10:53:23;;;;;;;3.20;2.58;;;20.60;92.90;;;;;;5069859;29;20564;-67
2021/06/07 10:56:05;;;;;;;6.97;2.95;;;20.50;93.10;;;;;;5049401;29;20776;-69
2021/06/07 10:58:52;;;;;;;3.65;2.72;;;20.60;92.70;;;;;;5069612;29;20589;-68
2021/06/07 11:01:51;;;;;;;7.85;2.70;;;20.70;93.50;;;;;;5052759;29;20203;-67
2021/06/07 11:04:36;;;;;;;4.80;2.80;;;20.80;93.30;;;;;;5069955;29;20226;-70
2021/06/07 11:07:21;;;;;;;3.97;2.70;;;20.80;93.40;;;;;;5057163;29;20229;-69
2021/06/07 11:10:08;;;;;;;4.03;2.42;;;20.90;93.30;;;;;;5071598;29;20202;-66
2021/06/07 11:12:42;;;;;;;4.72;2.80;;;21.00;93.70;;;;;;5088827;29;20213;-68
2021/06/07 11:15:29;;;;;;;2.83;2.53;;;20.90;93.80;;;;;;5089001;29;20201;-67
2021/06/07 11:18:22;;;;;;;3.28;2.67;;;21.00;94.10;;;;;;5080807;29;20254;-68
2021/06/07 11:21:00;;;;;;;5.65;2.92;;;20.80;94.20;;;;;;5052812;29;20206;-65
2021/06/07 11:23:39;;;;;;;8.40;2.88;;;20.70;94.20;;;;;;5068994;29;20272;-69
2021/06/07 11:26:18;;;;;;;5.72;2.70;;;20.80;94.80;;;;;;5068752;29;20741;-66
2021/06/07 11:29:04;;;;;;;5.38;2.83;;;20.70;94.70;;;;;;5069250;29;20229;-67
2021/06/07 11:31:41;;;;;;;4.50;2.40;;;20.80;95.80;;;;;;5069084;29;20206;-67
2021/06/07 11:34:17;;;;;;;4.88;2.75;;;20.80;95.80;;;;;;5068826;29;20214;-69
2021/06/07 11:36:49;;;;;;;5.70;2.20;;;20.90;95.40;;;;;;5069982;29;20238;-71
2021/06/07 11:39:42;;;;;;;5.10;2.53;;;20.80;94.90;;;;;;5069388;29;20266;-71
2021/06/07 11:42:17;;;;;;;4.05;2.67;;;20.70;96.10;;;;;;5052402;29;20199;-69
2021/06/07 11:45:08;;;;;;;5.35;2.70;;;20.80;96.30;;;;;;5068576;29;20259;-66
2021/06/07 11:47:51;;;;;;;6.45;2.72;;;20.60;96.60;;;;;;5068464;29;20195;-67
2021/06/07 11:50:40;;;;;;;6.03;2.92;;;20.60;97.30;;;;;;5068770;29;20210;-66
2021/06/07 11:53:15;;;;;;;3.83;2.40;;;20.50;97.30;;;;;;5068497;29;20211;-69
2021/06/07 11:55:53;;;;;;;4.85;2.85;;;20.40;97.50;;;;;;5068454;29;20206;-67
2021/06/07 11:58:26;;;;;;;5.18;2.78;;;20.40;97.90;;;;;;5068753;29;20223;-68
2021/06/07 12:01:01;;;;;;;6.05;2.83;;;20.40;98.10;;;;;;5068549;29;20195;-68
2021/06/07 12:03:33;;;;;;;5.68;2.80;;;20.40;98.40;;;;;;5068087;29;20205;-64
2021/06/07 12:06:08;;;;;;;7.55;3.10;;;20.30;98.60;;;;;;5068161;29;20326;-68
2021/06/07 12:08:40;;;;;;;7.35;2.85;;;20.30;98.50;;;;;;5051348;29;20218;-64
2021/06/07 12:11:12;;;;;;;5.32;2.47;;;20.40;97.60;;;;;;5068325;29;20620;-67
2021/06/07 12:13:44;;;;;;;4.68;2.33;;;20.50;96.70;;;;;;5068395;29;20191;-65
2021/06/07 12:16:16;;;;;;;5.30;2.22;;;20.60;96.10;;;;;;5068360;29;20230;-67
2021/06/07 12:18:52;;;;;;;4.43;2.45;;;20.60;96.40;;;;;;5068262;29;20245;-65
2021/06/07 12:21:31;;;;;;;4.10;2.20;;;20.80;96.80;;;;;;5068460;29;20202;-64
2021/06/07 12:24:10;;;;;;;6.25;1.98;;;20.80;93.80;;;;;;5067923;29;20195;-64
2021/06/07 12:29:35;;;;;;;2.92;1.60;;;20.90;90.00;;;;;;5068116;29;20230;-65
2021/06/07 12:32:17;;;;;;;4.35;1.40;;;20.90;90.70;;;;;;5068259;29;20562;-68
2021/06/07 12:35:10;;;;;;;2.60;1.30;;;21.00;88.70;;;;;;5067894;29;20679;-72
2021/06/07 12:37:57;;;;;;;2.70;1.38;;;21.00;86.00;;;;;;5067954;29;20215;-66
2021/06/07 12:40:48;;;;;;;2.78;1.30;;;21.00;86.40;;;;;;5068364;29;20195;-69
2021/06/07 12:43:22;;;;;;;2.58;1.30;;;21.10;84.70;;;;;;5068558;29;20562;-72
2021/06/07 12:46:03;;;;;;;3.13;1.20;;;21.10;81.60;;;;;;5068182;29;20604;-74
2021/06/07 12:48:35;;;;;;;1.70;1.30;;;21.00;80.80;;;;;;5066401;29;20225;-69
2021/06/07 12:51:10;;;;;;;1.58;1.20;;;21.00;80.80;;;;;;5065324;29;20195;-64
2021/06/07 12:53:49;;;;;;;2.97;1.30;;;21.10;79.60;;;;;;5065003;29;20250;-65
2021/06/07 12:56:27;;;;;;;2.22;1.17;;;21.20;77.30;;;;;;5062547;29;20214;-66
2021/06/07 12:59:00;;;;;;;4.70;1.70;;;21.10;78.20;;;;;;5045722;29;20199;-64
2021/06/07 13:01:50;;;;;;;2.85;2.00;;;21.10;82.20;;;;;;5082676;29;20201;-66
2021/06/07 13:04:31;;;;;;;2.67;2.10;;;21.10;82.90;;;;;;5081596;29;20439;-66
2021/06/07 13:07:15;;;;;;;2.97;2.20;;;21.10;82.90;;;;;;5083203;29;20238;-66
2021/06/07 13:09:51;;;;;;;3.35;2.22;;;21.10;86.00;;;;;;5084990;29;20190;-64
2021/06/07 13:12:27;;;;;;;2.63;1.75;;;21.10;85.10;;;;;;5085157;29;20198;-65
2021/06/07 13:14:59;;;;;;;2.90;1.90;;;21.00;87.20;;;;;;5069562;29;20297;-65
2021/06/07 13:17:32;;;;;;;5.45;2.13;;;21.00;88.90;;;;;;5065679;29;20247;-63
2021/06/07 13:20:16;;;;;;;3.45;2.13;;;21.10;89.30;;;;;;5064817;29;20199;-66
2021/06/07 13:22:48;;;;;;;3.78;2.30;;;21.20;89.10;;;;;;5063142;29;20219;-63